sensor_id;sensor_type;location;lat;lon;timestamp;pressure;altitude;pressure_sealevel;temperature;humidity
55373;BME280;41249;47.838;16.490;2022-10-16T00:01:07;99583.66;;;5.95;89.70
55373;BME280;41249;47.838;16.490;2022-10-16T00:03:34;99588.00;;;5.96;89.65
55373;BME280;41249;47.838;16.490;2022-10-16T00:06:01;99581.09;;;5.87;89.41
55373;BME280;41249;47.838;16.490;2022-10-16T00:08:28;99580.06;;;5.76;89.68
55373;BME280;41249;47.838;16.490;2022-10-16T00:11:02;99576.50;;;5.75;89.82
55373;BME280;41249;47.838;16.490;2022-10-16T00:13:31;99576.16;;;5.77;90.35
55373;BME280;41249;47.838;16.490;2022-10-16T00:15:59;99584.06;;;5.78;90.59
55373;BME280;41249;47.838;16.490;2022-10-16T00:18:26;99578.44;;;5.75;89.86
55373;BME280;41249;47.838;16.490;2022-10-16T00:20:53;99570.81;;;5.84;89.96
55373;BME280;41249;47.838;16.490;2022-10-16T00:23:21;99565.28;;;5.84;89.35
55373;BME280;41249;47.838;16.490;2022-10-16T00:25:55;99565.28;;;5.84;89.65
55373;BME280;41249;47.838;16.490;2022-10-16T00:28:23;99570.00;;;5.83;89.96
55373;BME280;41249;47.838;16.490;2022-10-16T00:30:50;99567.31;;;5.87;90.07
55373;BME280;41249;47.838;16.490;2022-10-16T00:33:16;99571.28;;;5.89;89.32
55373;BME280;41249;47.838;16.490;2022-10-16T00:35:43;99573.56;;;5.84;89.12
55373;BME280;41249;47.838;16.490;2022-10-16T00:38:10;99566.81;;;5.81;88.77
55373;BME280;41249;47.838;16.490;2022-10-16T00:40:37;99567.59;;;5.82;88.65
55373;BME280;41249;47.838;16.490;2022-10-16T00:43:11;99573.03;;;5.78;89.39
55373;BME280;41249;47.838;16.490;2022-10-16T00:45:38;99571.78;;;5.76;89.21
55373;BME280;41249;47.838;16.490;2022-10-16T00:48:10;99565.03;;;5.73;88.77
55373;BME280;41249;47.838;16.490;2022-10-16T00:50:40;99561.16;;;5.74;89.09
55373;BME280;41249;47.838;16.490;2022-10-16T00:53:10;99566.44;;;5.83;88.84
55373;BME280;41249;47.838;16.490;2022-10-16T00:55:37;99568.19;;;5.91;89.08
55373;BME280;41249;47.838;16.490;2022-10-16T00:58:07;99568.63;;;5.93;89.21
55373;BME280;41249;47.838;16.490;2022-10-16T01:00:34;99570.31;;;5.97;89.07
55373;BME280;41249;47.838;16.490;2022-10-16T01:03:02;99576.53;;;5.94;88.95
55373;BME280;41249;47.838;16.490;2022-10-16T01:05:49;99576.91;;;5.93;88.65
55373;BME280;41249;47.838;16.490;2022-10-16T01:08:23;99584.28;;;5.89;89.24
55373;BME280;41249;47.838;16.490;2022-10-16T01:10:57;99584.97;;;6.02;89.06
55373;BME280;41249;47.838;16.490;2022-10-16T01:13:36;99578.94;;;5.96;88.87
55373;BME280;41249;47.838;16.490;2022-10-16T01:21:52;99592.06;;;5.68;89.14
55373;BME280;41249;47.838;16.490;2022-10-16T01:24:39;99584.88;;;5.48;89.32
55373;BME280;41249;47.838;16.490;2022-10-16T01:27:18;99587.03;;;5.39;89.25
55373;BME280;41249;47.838;16.490;2022-10-16T01:35:05;99585.44;;;5.22;89.55
55373;BME280;41249;47.838;16.490;2022-10-16T01:37:47;99592.72;;;5.14;89.36
55373;BME280;41249;47.838;16.490;2022-10-16T01:40:17;99592.06;;;5.05;89.90
55373;BME280;41249;47.838;16.490;2022-10-16T01:42:52;99579.00;;;5.02;90.02
55373;BME280;41249;47.838;16.490;2022-10-16T01:45:21;99591.97;;;5.02;89.88
55373;BME280;41249;47.838;16.490;2022-10-16T01:47:49;99596.94;;;4.96;89.86
55373;BME280;41249;47.838;16.490;2022-10-16T01:50:18;99596.03;;;4.92;89.83
55373;BME280;41249;47.838;16.490;2022-10-16T01:52:49;99603.38;;;4.88;89.76
55373;BME280;41249;47.838;16.490;2022-10-16T01:55:22;99598.44;;;4.94;90.43
55373;BME280;41249;47.838;16.490;2022-10-16T01:57:53;99597.13;;;5.03;90.36
55373;BME280;41249;47.838;16.490;2022-10-16T02:00:21;99596.00;;;5.20;90.67
55373;BME280;41249;47.838;16.490;2022-10-16T02:02:51;99598.06;;;5.39;90.83
55373;BME280;41249;47.838;16.490;2022-10-16T02:05:32;99599.72;;;5.59;90.53
55373;BME280;41249;47.838;16.490;2022-10-16T02:08:00;99598.91;;;5.74;90.57
55373;BME280;41249;47.838;16.490;2022-10-16T02:10:31;99582.03;;;5.94;90.79
55373;BME280;41249;47.838;16.490;2022-10-16T02:13:10;99576.75;;;6.05;90.29
55373;BME280;41249;47.838;16.490;2022-10-16T02:15:37;99579.66;;;6.12;89.95
55373;BME280;41249;47.838;16.490;2022-10-16T02:18:05;99580.13;;;6.14;89.11
55373;BME280;41249;47.838;16.490;2022-10-16T02:20:40;99588.03;;;6.16;88.72
55373;BME280;41249;47.838;16.490;2022-10-16T02:23:12;99590.41;;;6.17;88.86
55373;BME280;41249;47.838;16.490;2022-10-16T02:25:41;99602.34;;;6.21;88.57
55373;BME280;41249;47.838;16.490;2022-10-16T02:28:27;99596.09;;;6.24;88.35
55373;BME280;41249;47.838;16.490;2022-10-16T02:30:58;99595.00;;;6.29;87.78
55373;BME280;41249;47.838;16.490;2022-10-16T02:33:27;99598.63;;;6.33;88.15
55373;BME280;41249;47.838;16.490;2022-10-16T02:35:55;99601.91;;;6.38;88.13
55373;BME280;41249;47.838;16.490;2022-10-16T02:38:24;99602.75;;;6.42;87.56
55373;BME280;41249;47.838;16.490;2022-10-16T02:40:52;99607.13;;;6.43;87.97
55373;BME280;41249;47.838;16.490;2022-10-16T02:43:19;99600.44;;;6.44;88.14
55373;BME280;41249;47.838;16.490;2022-10-16T02:45:45;99602.03;;;6.45;88.11
55373;BME280;41249;47.838;16.490;2022-10-16T02:48:12;99608.00;;;6.47;88.12
55373;BME280;41249;47.838;16.490;2022-10-16T02:50:38;99607.66;;;6.49;88.54
55373;BME280;41249;47.838;16.490;2022-10-16T02:53:05;99613.22;;;6.52;88.59
55373;BME280;41249;47.838;16.490;2022-10-16T02:55:31;99607.06;;;6.59;88.06
55373;BME280;41249;47.838;16.490;2022-10-16T02:57:58;99604.34;;;6.62;88.35
55373;BME280;41249;47.838;16.490;2022-10-16T03:00:25;99617.34;;;6.62;88.21
55373;BME280;41249;47.838;16.490;2022-10-16T03:02:51;99605.59;;;6.65;88.59
55373;BME280;41249;47.838;16.490;2022-10-16T03:05:18;99607.53;;;6.64;88.71
55373;BME280;41249;47.838;16.490;2022-10-16T03:07:45;99602.50;;;6.67;89.01
55373;BME280;41249;47.838;16.490;2022-10-16T03:10:11;99613.34;;;6.59;88.18
55373;BME280;41249;47.838;16.490;2022-10-16T03:12:38;99609.44;;;6.60;88.73
55373;BME280;41249;47.838;16.490;2022-10-16T03:15:05;99606.97;;;6.55;88.78
55373;BME280;41249;47.838;16.490;2022-10-16T03:17:33;99611.63;;;6.51;88.89
55373;BME280;41249;47.838;16.490;2022-10-16T03:19:59;99606.13;;;6.51;88.71
55373;BME280;41249;47.838;16.490;2022-10-16T03:22:26;99606.41;;;6.46;88.99
55373;BME280;41249;47.838;16.490;2022-10-16T03:24:52;99609.50;;;6.45;89.22
55373;BME280;41249;47.838;16.490;2022-10-16T03:27:19;99609.88;;;6.43;88.67
55373;BME280;41249;47.838;16.490;2022-10-16T03:29:45;99608.28;;;6.42;88.96
55373;BME280;41249;47.838;16.490;2022-10-16T03:32:12;99611.31;;;6.37;89.57
55373;BME280;41249;47.838;16.490;2022-10-16T03:34:38;99617.50;;;6.31;88.98
55373;BME280;41249;47.838;16.490;2022-10-16T03:37:05;99619.72;;;6.25;88.92
55373;BME280;41249;47.838;16.490;2022-10-16T03:39:32;99622.44;;;6.22;89.38
55373;BME280;41249;47.838;16.490;2022-10-16T03:41:58;99621.19;;;6.19;89.61
55373;BME280;41249;47.838;16.490;2022-10-16T03:44:25;99630.69;;;6.22;89.39
55373;BME280;41249;47.838;16.490;2022-10-16T03:46:51;99619.31;;;6.23;89.71
55373;BME280;41249;47.838;16.490;2022-10-16T03:49:18;99625.91;;;6.19;89.75
55373;BME280;41249;47.838;16.490;2022-10-16T03:51:45;99631.16;;;6.08;89.94
55373;BME280;41249;47.838;16.490;2022-10-16T03:54:12;99639.00;;;6.06;89.74
55373;BME280;41249;47.838;16.490;2022-10-16T03:56:39;99639.88;;;6.10;90.09
55373;BME280;41249;47.838;16.490;2022-10-16T03:59:05;99642.34;;;6.15;89.76
55373;BME280;41249;47.838;16.490;2022-10-16T04:01:32;99645.81;;;6.12;89.46
55373;BME280;41249;47.838;16.490;2022-10-16T04:03:58;99656.06;;;6.12;90.25
55373;BME280;41249;47.838;16.490;2022-10-16T04:06:25;99652.41;;;6.08;89.80
55373;BME280;41249;47.838;16.490;2022-10-16T04:08:51;99658.72;;;6.08;89.65
55373;BME280;41249;47.838;16.490;2022-10-16T04:11:18;99661.50;;;6.08;89.92
55373;BME280;41249;47.838;16.490;2022-10-16T04:13:44;99664.78;;;6.14;89.62
55373;BME280;41249;47.838;16.490;2022-10-16T04:16:11;99660.41;;;6.13;89.38
55373;BME280;41249;47.838;16.490;2022-10-16T04:18:38;99663.16;;;6.13;89.93
55373;BME280;41249;47.838;16.490;2022-10-16T04:21:05;99665.59;;;6.14;90.04
55373;BME280;41249;47.838;16.490;2022-10-16T04:23:32;99669.47;;;6.13;90.43
55373;BME280;41249;47.838;16.490;2022-10-16T04:26:00;99680.06;;;6.11;89.67
55373;BME280;41249;47.838;16.490;2022-10-16T04:28:27;99674.56;;;6.11;89.82
55373;BME280;41249;47.838;16.490;2022-10-16T04:30:54;99673.84;;;6.14;89.68
55373;BME280;41249;47.838;16.490;2022-10-16T04:33:21;99673.75;;;6.11;89.57
55373;BME280;41249;47.838;16.490;2022-10-16T04:35:47;99666.72;;;6.13;89.84
55373;BME280;41249;47.838;16.490;2022-10-16T04:38:14;99663.59;;;6.15;90.20
55373;BME280;41249;47.838;16.490;2022-10-16T04:40:42;99666.00;;;6.16;89.52
55373;BME280;41249;47.838;16.490;2022-10-16T04:43:09;99658.56;;;6.17;89.60
55373;BME280;41249;47.838;16.490;2022-10-16T04:45:35;99659.59;;;6.12;88.82
55373;BME280;41249;47.838;16.490;2022-10-16T04:48:02;99651.97;;;6.06;89.58
55373;BME280;41249;47.838;16.490;2022-10-16T04:50:28;99657.13;;;6.07;89.16
55373;BME280;41249;47.838;16.490;2022-10-16T04:52:55;99668.16;;;6.07;88.82
55373;BME280;41249;47.838;16.490;2022-10-16T04:55:22;99672.09;;;6.06;89.09
55373;BME280;41249;47.838;16.490;2022-10-16T04:57:48;99670.91;;;6.07;88.97
55373;BME280;41249;47.838;16.490;2022-10-16T05:00:15;99680.41;;;6.10;88.80
55373;BME280;41249;47.838;16.490;2022-10-16T05:02:42;99674.13;;;6.09;89.52
55373;BME280;41249;47.838;16.490;2022-10-16T05:05:08;99672.16;;;6.10;88.61
55373;BME280;41249;47.838;16.490;2022-10-16T05:07:35;99669.47;;;6.13;88.77
55373;BME280;41249;47.838;16.490;2022-10-16T05:10:02;99673.31;;;6.09;88.86
55373;BME280;41249;47.838;16.490;2022-10-16T05:12:28;99672.09;;;6.06;88.32
55373;BME280;41249;47.838;16.490;2022-10-16T05:14:55;99684.69;;;6.07;88.39
55373;BME280;41249;47.838;16.490;2022-10-16T05:17:25;99683.97;;;6.10;88.14
55373;BME280;41249;47.838;16.490;2022-10-16T05:19:53;99681.31;;;6.14;88.59
55373;BME280;41249;47.838;16.490;2022-10-16T05:22:20;99688.34;;;6.11;88.40
55373;BME280;41249;47.838;16.490;2022-10-16T05:24:47;99693.22;;;6.18;88.32
55373;BME280;41249;47.838;16.490;2022-10-16T05:27:13;99701.56;;;6.21;87.91
55373;BME280;41249;47.838;16.490;2022-10-16T05:29:46;99710.94;;;6.17;88.08
55373;BME280;41249;47.838;16.490;2022-10-16T05:32:14;99706.13;;;6.14;88.04
55373;BME280;41249;47.838;16.490;2022-10-16T05:34:41;99713.16;;;6.11;88.02
55373;BME280;41249;47.838;16.490;2022-10-16T05:37:08;99713.16;;;6.11;88.21
55373;BME280;41249;47.838;16.490;2022-10-16T05:39:35;99710.81;;;6.13;87.70
55373;BME280;41249;47.838;16.490;2022-10-16T05:42:03;99705.31;;;6.13;88.23
55373;BME280;41249;47.838;16.490;2022-10-16T05:44:30;99720.34;;;6.16;88.07
55373;BME280;41249;47.838;16.490;2022-10-16T05:46:57;99719.97;;;6.17;88.24
55373;BME280;41249;47.838;16.490;2022-10-16T05:49:24;99721.94;;;6.17;87.81
55373;BME280;41249;47.838;16.490;2022-10-16T05:51:50;99734.56;;;6.18;88.14
55373;BME280;41249;47.838;16.490;2022-10-16T05:54:17;99727.81;;;6.15;87.84
55373;BME280;41249;47.838;16.490;2022-10-16T05:56:43;99729.31;;;6.13;88.11
55373;BME280;41249;47.838;16.490;2022-10-16T05:59:10;99724.88;;;6.08;87.89
55373;BME280;41249;47.838;16.490;2022-10-16T06:01:36;99735.91;;;6.08;88.31
55373;BME280;41249;47.838;16.490;2022-10-16T06:04:03;99735.63;;;6.13;88.69
55373;BME280;41249;47.838;16.490;2022-10-16T06:06:30;99740.00;;;6.14;87.98
55373;BME280;41249;47.838;16.490;2022-10-16T06:08:57;99745.94;;;6.16;88.40
55373;BME280;41249;47.838;16.490;2022-10-16T06:11:27;99747.53;;;6.17;88.46
55373;BME280;41249;47.838;16.490;2022-10-16T06:13:56;99755.53;;;6.22;88.17
55373;BME280;41249;47.838;16.490;2022-10-16T06:16:25;99759.53;;;6.25;88.54
55373;BME280;41249;47.838;16.490;2022-10-16T06:18:53;99762.81;;;6.30;88.62
55373;BME280;41249;47.838;16.490;2022-10-16T06:21:23;99772.25;;;6.29;88.35
55373;BME280;41249;47.838;16.490;2022-10-16T06:23:54;99767.19;;;6.31;88.31
55373;BME280;41249;47.838;16.490;2022-10-16T06:26:23;99770.38;;;6.33;88.83
55373;BME280;41249;47.838;16.490;2022-10-16T06:28:50;99771.69;;;6.39;88.68
55373;BME280;41249;47.838;16.490;2022-10-16T06:31:17;99781.13;;;6.38;88.18
55373;BME280;41249;47.838;16.490;2022-10-16T06:33:43;99776.78;;;6.37;88.95
55373;BME280;41249;47.838;16.490;2022-10-16T06:36:14;99784.25;;;6.37;87.78
55373;BME280;41249;47.838;16.490;2022-10-16T06:38:42;99796.50;;;6.39;88.75
55373;BME280;41249;47.838;16.490;2022-10-16T06:41:11;99796.50;;;6.39;88.28
55373;BME280;41249;47.838;16.490;2022-10-16T06:43:38;99799.72;;;6.41;88.53
55373;BME280;41249;47.838;16.490;2022-10-16T06:46:07;99808.50;;;6.47;88.83
55373;BME280;41249;47.838;16.490;2022-10-16T06:48:35;99811.47;;;6.54;87.73
55373;BME280;41249;47.838;16.490;2022-10-16T06:51:16;99814.00;;;6.62;88.39
55373;BME280;41249;47.838;16.490;2022-10-16T06:53:46;99813.66;;;6.64;87.55
55373;BME280;41249;47.838;16.490;2022-10-16T06:56:29;99818.56;;;6.71;88.25
55373;BME280;41249;47.838;16.490;2022-10-16T06:58:57;99823.44;;;6.77;88.04
55373;BME280;41249;47.838;16.490;2022-10-16T07:01:24;99831.66;;;6.74;87.45
55373;BME280;41249;47.838;16.490;2022-10-16T07:03:52;99829.84;;;6.65;87.52
55373;BME280;41249;47.838;16.490;2022-10-16T07:06:20;99830.84;;;6.57;87.70
55373;BME280;41249;47.838;16.490;2022-10-16T07:08:47;99830.69;;;6.50;87.93
55373;BME280;41249;47.838;16.490;2022-10-16T07:11:20;99824.28;;;6.46;88.30
55373;BME280;41249;47.838;16.490;2022-10-16T07:13:47;99832.47;;;6.43;88.67
55373;BME280;41249;47.838;16.490;2022-10-16T07:16:25;99835.13;;;6.39;88.39
55373;BME280;41249;47.838;16.490;2022-10-16T07:18:54;99838.25;;;6.38;88.49
55373;BME280;41249;47.838;16.490;2022-10-16T07:21:26;99832.09;;;6.44;88.56
55373;BME280;41249;47.838;16.490;2022-10-16T07:23:57;99833.06;;;6.52;88.74
55373;BME280;41249;47.838;16.490;2022-10-16T07:26:25;99832.44;;;6.58;88.12
55373;BME280;41249;47.838;16.490;2022-10-16T07:28:52;99841.97;;;6.61;88.15
55373;BME280;41249;47.838;16.490;2022-10-16T07:31:20;99848.84;;;6.51;88.35
55373;BME280;41249;47.838;16.490;2022-10-16T07:33:48;99859.22;;;6.42;88.43
55373;BME280;41249;47.838;16.490;2022-10-16T07:36:16;99852.41;;;6.36;88.43
55373;BME280;41249;47.838;16.490;2022-10-16T07:38:43;99867.06;;;6.40;88.25
55373;BME280;41249;47.838;16.490;2022-10-16T07:41:15;99858.53;;;6.45;88.10
55373;BME280;41249;47.838;16.490;2022-10-16T07:43:49;99874.91;;;6.54;88.00
55373;BME280;41249;47.838;16.490;2022-10-16T07:46:17;99872.47;;;6.52;88.05
55373;BME280;41249;47.838;16.490;2022-10-16T07:48:45;99865.19;;;6.60;88.31
55373;BME280;41249;47.838;16.490;2022-10-16T07:51:18;99874.00;;;6.65;88.33
55373;BME280;41249;47.838;16.490;2022-10-16T07:53:46;99873.75;;;6.71;88.05
55373;BME280;41249;47.838;16.490;2022-10-16T07:56:13;99864.94;;;6.81;87.40
55373;BME280;41249;47.838;16.490;2022-10-16T07:58:40;99860.81;;;6.90;86.85
55373;BME280;41249;47.838;16.490;2022-10-16T08:01:09;99863.66;;;6.94;87.67
55373;BME280;41249;47.838;16.490;2022-10-16T08:03:37;99864.66;;;6.86;87.32
55373;BME280;41249;47.838;16.490;2022-10-16T08:06:04;99870.16;;;6.86;87.65
55373;BME280;41249;47.838;16.490;2022-10-16T08:08:31;99867.03;;;6.87;87.22
55373;BME280;41249;47.838;16.490;2022-10-16T08:10:58;99870.22;;;6.89;87.64
55373;BME280;41249;47.838;16.490;2022-10-16T08:13:24;99866.75;;;6.92;87.51
55373;BME280;41249;47.838;16.490;2022-10-16T08:15:51;99872.72;;;6.94;86.95
55373;BME280;41249;47.838;16.490;2022-10-16T08:18:17;99878.34;;;6.98;87.13
55373;BME280;41249;47.838;16.490;2022-10-16T08:20:44;99888.50;;;6.94;86.70
55373;BME280;41249;47.838;16.490;2022-10-16T08:23:14;99886.44;;;6.91;86.69
55373;BME280;41249;47.838;16.490;2022-10-16T08:25:41;99885.75;;;6.94;87.46
55373;BME280;41249;47.838;16.490;2022-10-16T08:28:09;99891.75;;;6.99;87.63
55373;BME280;41249;47.838;16.490;2022-10-16T08:30:36;99886.19;;;6.96;86.59
55373;BME280;41249;47.838;16.490;2022-10-16T08:33:03;99895.06;;;7.05;87.50
55373;BME280;41249;47.838;16.490;2022-10-16T08:35:30;99891.38;;;7.16;87.26
55373;BME280;41249;47.838;16.490;2022-10-16T08:37:57;99892.84;;;7.29;86.09
55373;BME280;41249;47.838;16.490;2022-10-16T08:40:26;99902.94;;;7.22;86.74
55373;BME280;41249;47.838;16.490;2022-10-16T08:50:41;99900.31;;;7.64;85.90
55373;BME280;41249;47.838;16.490;2022-10-16T08:53:15;99912.50;;;7.82;86.25
55373;BME280;41249;47.838;16.490;2022-10-16T08:55:52;99901.06;;;8.03;85.30
55373;BME280;41249;47.838;16.490;2022-10-16T08:58:21;99899.31;;;8.14;85.25
55373;BME280;41249;47.838;16.490;2022-10-16T09:00:51;99907.56;;;8.10;85.19
55373;BME280;41249;47.838;16.490;2022-10-16T09:08:46;99908.91;;;8.20;85.35
55373;BME280;41249;47.838;16.490;2022-10-16T09:11:53;99913.59;;;8.16;83.89
55373;BME280;41249;47.838;16.490;2022-10-16T09:22:51;99904.88;;;8.36;84.48
55373;BME280;41249;47.838;16.490;2022-10-16T09:25:21;99918.09;;;8.46;84.16
55373;BME280;41249;47.838;16.490;2022-10-16T09:27:48;99915.28;;;8.43;84.06
55373;BME280;41249;47.838;16.490;2022-10-16T09:30:20;99914.84;;;8.41;83.63
55373;BME280;41249;47.838;16.490;2022-10-16T09:32:50;99916.19;;;8.50;83.89
55373;BME280;41249;47.838;16.490;2022-10-16T09:35:23;99922.97;;;8.76;83.18
55373;BME280;41249;47.838;16.490;2022-10-16T09:37:54;99917.63;;;8.90;82.50
55373;BME280;41249;47.838;16.490;2022-10-16T09:40:26;99924.09;;;8.97;82.62
55373;BME280;41249;47.838;16.490;2022-10-16T09:46:08;99938.47;;;9.06;81.77
55373;BME280;41249;47.838;16.490;2022-10-16T09:48:47;99935.22;;;9.27;81.79
55373;BME280;41249;47.838;16.490;2022-10-16T09:51:35;99944.25;;;9.47;81.61
55373;BME280;41249;47.838;16.490;2022-10-16T09:54:19;99945.66;;;9.63;80.74
55373;BME280;41249;47.838;16.490;2022-10-16T09:56:47;99938.47;;;9.59;81.09
55373;BME280;41249;47.838;16.490;2022-10-16T09:59:20;99953.38;;;9.77;80.74
55373;BME280;41249;47.838;16.490;2022-10-16T10:04:17;99946.03;;;10.28;79.93
55373;BME280;41249;47.838;16.490;2022-10-16T10:06:49;99945.91;;;10.48;79.42
55373;BME280;41249;47.838;16.490;2022-10-16T10:14:18;99943.31;;;10.69;78.91
55373;BME280;41249;47.838;16.490;2022-10-16T10:16:47;99939.34;;;10.70;78.65
55373;BME280;41249;47.838;16.490;2022-10-16T10:19:22;99933.03;;;10.73;78.65
55373;BME280;41249;47.838;16.490;2022-10-16T10:21:50;99939.56;;;10.98;78.10
55373;BME280;41249;47.838;16.490;2022-10-16T10:24:19;99931.13;;;10.80;78.68
55373;BME280;41249;47.838;16.490;2022-10-16T10:27:02;99924.88;;;10.90;78.67
55373;BME280;41249;47.838;16.490;2022-10-16T10:38:41;99923.88;;;11.85;76.06
55373;BME280;41249;47.838;16.490;2022-10-16T10:44:16;99921.22;;;12.41;75.71
55373;BME280;41249;47.838;16.490;2022-10-16T10:46:57;99923.66;;;12.60;74.99
55373;BME280;41249;47.838;16.490;2022-10-16T10:55:23;99921.72;;;12.99;73.92
55373;BME280;41249;47.838;16.490;2022-10-16T11:01:04;99909.69;;;13.38;72.54
55373;BME280;41249;47.838;16.490;2022-10-16T11:06:08;99911.66;;;13.58;72.94
55373;BME280;41249;47.838;16.490;2022-10-16T11:08:43;99911.16;;;13.88;71.59
55373;BME280;41249;47.838;16.490;2022-10-16T11:11:36;99915.81;;;14.12;69.93
55373;BME280;41249;47.838;16.490;2022-10-16T11:14:33;99917.31;;;14.27;71.05
55373;BME280;41249;47.838;16.490;2022-10-16T11:17:21;99918.53;;;14.26;68.53
55373;BME280;41249;47.838;16.490;2022-10-16T11:20:13;99911.69;;;14.42;68.60
55373;BME280;41249;47.838;16.490;2022-10-16T11:22:47;99911.66;;;14.45;69.45
55373;BME280;41249;47.838;16.490;2022-10-16T11:25:23;99913.63;;;14.52;68.33
55373;BME280;41249;47.838;16.490;2022-10-16T11:28:11;99909.97;;;14.62;68.41
55373;BME280;41249;47.838;16.490;2022-10-16T11:30:53;99901.03;;;14.77;68.52
55373;BME280;41249;47.838;16.490;2022-10-16T11:33:29;99903.38;;;14.86;67.64
55373;BME280;41249;47.838;16.490;2022-10-16T11:36:15;99912.69;;;15.13;67.45
55373;BME280;41249;47.838;16.490;2022-10-16T11:38:51;99905.13;;;15.14;66.77
55373;BME280;41249;47.838;16.490;2022-10-16T11:41:28;99894.91;;;15.37;66.61
55373;BME280;41249;47.838;16.490;2022-10-16T11:44:50;99897.28;;;15.39;66.10
55373;BME280;41249;47.838;16.490;2022-10-16T11:50:39;99883.34;;;15.35;65.43
55373;BME280;41249;47.838;16.490;2022-10-16T11:53:16;99890.72;;;15.52;64.46
55373;BME280;41249;47.838;16.490;2022-10-16T11:55:45;99886.75;;;15.50;64.26
55373;BME280;41249;47.838;16.490;2022-10-16T12:03:47;99893.31;;;16.04;63.42
55373;BME280;41249;47.838;16.490;2022-10-16T12:09:02;99885.56;;;16.15;62.49
55373;BME280;41249;47.838;16.490;2022-10-16T12:16:39;99874.91;;;16.33;61.70
55373;BME280;41249;47.838;16.490;2022-10-16T12:19:17;99876.91;;;16.33;60.96
55373;BME280;41249;47.838;16.490;2022-10-16T12:21:45;99876.88;;;16.36;60.72
55373;BME280;41249;47.838;16.490;2022-10-16T12:24:43;99881.59;;;16.12;61.06
55373;BME280;41249;47.838;16.490;2022-10-16T12:27:30;99875.97;;;16.16;60.49
55373;BME280;41249;47.838;16.490;2022-10-16T12:30:00;99876.47;;;16.07;61.13
55373;BME280;41249;47.838;16.490;2022-10-16T12:32:34;99880.50;;;16.03;61.50
55373;BME280;41249;47.838;16.490;2022-10-16T12:35:31;99882.72;;;16.18;61.11
55373;BME280;41249;47.838;16.490;2022-10-16T12:38:16;99877.53;;;16.17;60.09
55373;BME280;41249;47.838;16.490;2022-10-16T12:40:44;99875.63;;;16.37;60.10
55373;BME280;41249;47.838;16.490;2022-10-16T12:46:35;99887.19;;;16.39;59.24
55373;BME280;41249;47.838;16.490;2022-10-16T12:48:52;99888.66;;;16.51;58.97
55373;BME280;41249;47.838;16.490;2022-10-16T12:51:36;99892.25;;;16.74;58.65
55373;BME280;41249;47.838;16.490;2022-10-16T13:03:09;99882.84;;;17.11;58.44
55373;BME280;41249;47.838;16.490;2022-10-16T13:19:41;99883.25;;;17.33;57.38
55373;BME280;41249;47.838;16.490;2022-10-16T13:22:23;99877.88;;;17.19;56.71
55373;BME280;41249;47.838;16.490;2022-10-16T13:25:01;99875.16;;;17.15;56.82
55373;BME280;41249;47.838;16.490;2022-10-16T13:30:19;99875.47;;;16.98;55.84
55373;BME280;41249;47.838;16.490;2022-10-16T13:33:06;99877.47;;;16.97;54.55
55373;BME280;41249;47.838;16.490;2022-10-16T13:35:35;99881.56;;;16.93;56.05
55373;BME280;41249;47.838;16.490;2022-10-16T13:38:13;99885.50;;;16.72;55.93
55373;BME280;41249;47.838;16.490;2022-10-16T13:40:50;99891.72;;;16.83;55.98
55373;BME280;41249;47.838;16.490;2022-10-16T13:45:57;99899.38;;;16.79;56.29
55373;BME280;41249;47.838;16.490;2022-10-16T13:48:24;99895.97;;;16.68;56.50
55373;BME280;41249;47.838;16.490;2022-10-16T13:51:12;99903.91;;;16.73;56.65
55373;BME280;41249;47.838;16.490;2022-10-16T13:53:40;99901.44;;;16.78;56.48
55373;BME280;41249;47.838;16.490;2022-10-16T13:56:18;99906.97;;;16.82;56.62
55373;BME280;41249;47.838;16.490;2022-10-16T13:58:45;99913.00;;;16.80;56.44
55373;BME280;41249;47.838;16.490;2022-10-16T14:01:18;99915.25;;;16.66;56.41
55373;BME280;41249;47.838;16.490;2022-10-16T14:03:46;99908.66;;;16.49;56.26
55373;BME280;41249;47.838;16.490;2022-10-16T14:06:16;99911.91;;;16.48;56.42
55373;BME280;41249;47.838;16.490;2022-10-16T14:08:46;99908.75;;;16.46;56.42
55373;BME280;41249;47.838;16.490;2022-10-16T14:11:23;99910.38;;;16.43;55.62
55373;BME280;41249;47.838;16.490;2022-10-16T14:13:51;99907.94;;;16.45;56.25
55373;BME280;41249;47.838;16.490;2022-10-16T14:16:23;99912.06;;;16.37;55.23
55373;BME280;41249;47.838;16.490;2022-10-16T14:19:00;99911.84;;;16.25;55.95
55373;BME280;41249;47.838;16.490;2022-10-16T14:21:28;99912.41;;;16.12;56.73
55373;BME280;41249;47.838;16.490;2022-10-16T14:23:56;99916.91;;;16.06;56.93
55373;BME280;41249;47.838;16.490;2022-10-16T14:26:26;99909.28;;;16.07;57.14
55373;BME280;41249;47.838;16.490;2022-10-16T14:29:13;99914.78;;;16.14;57.43
55373;BME280;41249;47.838;16.490;2022-10-16T14:31:41;99919.19;;;16.15;57.23
55373;BME280;41249;47.838;16.490;2022-10-16T14:34:31;99917.22;;;16.12;57.39
55373;BME280;41249;47.838;16.490;2022-10-16T14:37:02;99916.09;;;16.06;57.37
55373;BME280;41249;47.838;16.490;2022-10-16T14:39:35;99918.13;;;16.02;57.22
55373;BME280;41249;47.838;16.490;2022-10-16T14:42:02;99924.19;;;15.97;57.18
55373;BME280;41249;47.838;16.490;2022-10-16T14:44:31;99916.66;;;15.94;57.43
55373;BME280;41249;47.838;16.490;2022-10-16T14:47:08;99925.88;;;15.91;57.65
55373;BME280;41249;47.838;16.490;2022-10-16T14:49:35;99928.34;;;15.85;57.59
55373;BME280;41249;47.838;16.490;2022-10-16T14:52:08;99925.19;;;15.80;58.02
55373;BME280;41249;47.838;16.490;2022-10-16T14:54:34;99923.31;;;15.70;57.94
55373;BME280;41249;47.838;16.490;2022-10-16T14:57:01;99908.59;;;15.62;58.10
55373;BME280;41249;47.838;16.490;2022-10-16T14:59:40;99910.31;;;15.52;58.47
55373;BME280;41249;47.838;16.490;2022-10-16T15:02:28;99926.81;;;15.43;58.41
55373;BME280;41249;47.838;16.490;2022-10-16T15:04:55;99927.66;;;15.37;58.77
55373;BME280;41249;47.838;16.490;2022-10-16T15:07:23;99927.34;;;15.31;58.70
55373;BME280;41249;47.838;16.490;2022-10-16T15:09:50;99922.63;;;15.21;59.04
55373;BME280;41249;47.838;16.490;2022-10-16T15:12:17;99926.31;;;15.11;59.56